sensor_id;sensor_type;location;lat;lon;timestamp;pressure;altitude;pressure_sealevel;temperature;humidity
11888;BME280;6003;42.756;23.130;2022-08-19T00:01:57;157837.56;;;20.99;63.64
11888;BME280;6003;42.756;23.130;2022-08-19T00:04:27;157864.22;;;21.09;63.58
11888;BME280;6003;42.756;23.130;2022-08-19T00:06:55;157858.88;;;21.07;63.65
11888;BME280;6003;42.756;23.130;2022-08-19T00:09:23;157860.22;;;21.08;63.34
11888;BME280;6003;42.756;23.130;2022-08-19T00:11:51;157856.25;;;21.06;64.20
11888;BME280;6003;42.756;23.130;2022-08-19T00:14:19;157824.25;;;20.94;63.71
11888;BME280;6003;42.756;23.130;2022-08-19T00:16:48;157834.94;;;20.98;62.17
11888;BME280;6003;42.756;23.130;2022-08-19T00:19:18;157850.91;;;21.04;61.78
11888;BME280;6003;42.756;23.130;2022-08-19T00:21:45;157892.16;;;21.20;61.67
11888;BME280;6003;42.756;23.130;2022-08-19T00:24:13;157892.16;;;21.20;62.07
11888;BME280;6003;42.756;23.130;2022-08-19T00:26:42;157893.53;;;21.21;61.70
11888;BME280;6003;42.756;23.130;2022-08-19T00:29:11;157901.53;;;21.24;61.76
11888;BME280;6003;42.756;23.130;2022-08-19T00:31:38;157906.81;;;21.26;61.95
11888;BME280;6003;42.756;23.130;2022-08-19T00:34:06;157840.22;;;21.00;61.85
11888;BME280;6003;42.756;23.130;2022-08-19T00:36:34;157890.84;;;21.19;61.57
11888;BME280;6003;42.756;23.130;2022-08-19T00:39:02;157877.50;;;21.14;61.96
11888;BME280;6003;42.756;23.130;2022-08-19T00:41:30;157868.19;;;21.11;62.85
11888;BME280;6003;42.756;23.130;2022-08-19T00:43:59;157842.91;;;21.01;62.30
11888;BME280;6003;42.756;23.130;2022-08-19T00:46:27;157845.56;;;21.02;62.21
11888;BME280;6003;42.756;23.130;2022-08-19T00:48:54;157846.88;;;21.03;62.58
11888;BME280;6003;42.756;23.130;2022-08-19T00:51:23;157845.56;;;21.02;62.70
11888;BME280;6003;42.756;23.130;2022-08-19T00:53:54;157816.25;;;20.91;63.60
11888;BME280;6003;42.756;23.130;2022-08-19T00:56:22;157808.25;;;20.88;63.74
11888;BME280;6003;42.756;23.130;2022-08-19T00:58:49;157801.59;;;20.85;63.91
11888;BME280;6003;42.756;23.130;2022-08-19T01:01:16;157780.28;;;20.77;64.31
11888;BME280;6003;42.756;23.130;2022-08-19T01:03:44;157778.97;;;20.77;64.37
11888;BME280;6003;42.756;23.130;2022-08-19T01:06:10;157756.31;;;20.68;64.57
11888;BME280;6003;42.756;23.130;2022-08-19T01:08:37;157749.66;;;20.65;65.16
11888;BME280;6003;42.756;23.130;2022-08-19T01:11:06;157735.00;;;20.60;65.72
11888;BME280;6003;42.756;23.130;2022-08-19T01:13:34;157720.34;;;20.54;66.38
11888;BME280;6003;42.756;23.130;2022-08-19T01:16:05;157712.31;;;20.51;65.76
11888;BME280;6003;42.756;23.130;2022-08-19T01:18:38;157693.72;;;20.44;67.60
11888;BME280;6003;42.756;23.130;2022-08-19T01:21:12;157669.75;;;20.35;68.20
11888;BME280;6003;42.756;23.130;2022-08-19T01:23:43;157651.09;;;20.27;68.43
11888;BME280;6003;42.756;23.130;2022-08-19T01:26:15;157636.44;;;20.22;68.69
11888;BME280;6003;42.756;23.130;2022-08-19T01:28:44;157603.19;;;20.09;68.69
11888;BME280;6003;42.756;23.130;2022-08-19T01:31:14;157599.16;;;20.08;67.97
11888;BME280;6003;42.756;23.130;2022-08-19T01:33:42;157589.84;;;20.04;67.04
11888;BME280;6003;42.756;23.130;2022-08-19T01:36:11;157535.31;;;19.83;65.94
11888;BME280;6003;42.756;23.130;2022-08-19T01:38:41;157584.53;;;20.02;65.57
11888;BME280;6003;42.756;23.130;2022-08-19T01:41:11;157571.25;;;19.97;65.87
11888;BME280;6003;42.756;23.130;2022-08-19T01:43:39;157595.19;;;20.06;65.42
11888;BME280;6003;42.756;23.130;2022-08-19T01:46:06;157596.53;;;20.06;65.37
11888;BME280;6003;42.756;23.130;2022-08-19T01:48:34;157585.91;;;20.02;65.00
11888;BME280;6003;42.756;23.130;2022-08-19T01:51:02;157581.88;;;20.01;65.28
11888;BME280;6003;42.756;23.130;2022-08-19T01:53:30;157585.91;;;20.02;64.98
11888;BME280;6003;42.756;23.130;2022-08-19T01:55:57;157588.53;;;20.03;66.71
11888;BME280;6003;42.756;23.130;2022-08-19T01:58:28;157561.91;;;19.93;66.23
11888;BME280;6003;42.756;23.130;2022-08-19T02:00:57;157581.88;;;20.01;66.10
11888;BME280;6003;42.756;23.130;2022-08-19T02:03:24;157583.19;;;20.01;66.60
11888;BME280;6003;42.756;23.130;2022-08-19T02:05:54;157567.22;;;19.95;66.28
11888;BME280;6003;42.756;23.130;2022-08-19T02:08:21;157576.53;;;19.99;65.53
11888;BME280;6003;42.756;23.130;2022-08-19T02:10:49;157576.53;;;19.99;64.84
11888;BME280;6003;42.756;23.130;2022-08-19T02:13:17;157597.84;;;20.07;63.80
11888;BME280;6003;42.756;23.130;2022-08-19T02:15:46;157607.16;;;20.11;63.58
11888;BME280;6003;42.756;23.130;2022-08-19T02:18:13;157621.78;;;20.16;63.65
11888;BME280;6003;42.756;23.130;2022-08-19T02:20:41;157609.84;;;20.12;63.56
11888;BME280;6003;42.756;23.130;2022-08-19T02:23:09;157603.19;;;20.09;63.54
11888;BME280;6003;42.756;23.130;2022-08-19T02:25:37;157635.13;;;20.21;63.40
11888;BME280;6003;42.756;23.130;2022-08-19T02:28:05;157659.06;;;20.31;63.28
11888;BME280;6003;42.756;23.130;2022-08-19T02:30:32;157644.41;;;20.25;63.21
11888;BME280;6003;42.756;23.130;2022-08-19T02:33:01;157644.41;;;20.25;63.53
11888;BME280;6003;42.756;23.130;2022-08-19T02:35:27;157667.06;;;20.34;63.58
11888;BME280;6003;42.756;23.130;2022-08-19T02:37:54;157661.75;;;20.32;63.99
11888;BME280;6003;42.756;23.130;2022-08-19T02:40:38;157645.78;;;20.25;64.61
11888;BME280;6003;42.756;23.130;2022-08-19T02:43:07;157633.78;;;20.21;65.59
11888;BME280;6003;42.756;23.130;2022-08-19T02:45:36;157609.84;;;20.12;66.11
11888;BME280;6003;42.756;23.130;2022-08-19T02:48:05;157581.88;;;20.01;66.24
11888;BME280;6003;42.756;23.130;2022-08-19T02:50:33;157571.25;;;19.97;66.42
11888;BME280;6003;42.756;23.130;2022-08-19T02:53:00;157535.31;;;19.83;67.73
11888;BME280;6003;42.756;23.130;2022-08-19T02:55:27;157515.31;;;19.75;68.06
11888;BME280;6003;42.756;23.130;2022-08-19T02:57:54;157488.75;;;19.65;68.17
11888;BME280;6003;42.756;23.130;2022-08-19T03:00:22;157456.72;;;19.53;68.42
11888;BME280;6003;42.756;23.130;2022-08-19T03:02:50;157435.41;;;19.45;68.45
11888;BME280;6003;42.756;23.130;2022-08-19T03:05:18;157416.81;;;19.37;68.70
11888;BME280;6003;42.756;23.130;2022-08-19T03:07:46;157403.50;;;19.32;68.84
11888;BME280;6003;42.756;23.130;2022-08-19T03:10:13;157392.88;;;19.28;69.42
11888;BME280;6003;42.756;23.130;2022-08-19T03:12:40;157360.91;;;19.16;69.39
11888;BME280;6003;42.756;23.130;2022-08-19T03:15:08;157359.59;;;19.15;69.44
11888;BME280;6003;42.756;23.130;2022-08-19T03:17:36;157352.94;;;19.13;69.62
11888;BME280;6003;42.756;23.130;2022-08-19T03:20:04;157347.66;;;19.11;70.01
11888;BME280;6003;42.756;23.130;2022-08-19T03:22:33;157329.00;;;19.04;69.99
11888;BME280;6003;42.756;23.130;2022-08-19T03:24:59;157318.38;;;19.00;70.08
11888;BME280;6003;42.756;23.130;2022-08-19T03:27:27;157322.34;;;19.01;71.26
11888;BME280;6003;42.756;23.130;2022-08-19T03:29:55;157310.41;;;18.97;71.97
11888;BME280;6003;42.756;23.130;2022-08-19T03:32:22;157299.72;;;18.92;72.57
11888;BME280;6003;42.756;23.130;2022-08-19T03:34:48;157286.47;;;18.87;73.09
11888;BME280;6003;42.756;23.130;2022-08-19T03:37:16;157273.16;;;18.82;73.78
11888;BME280;6003;42.756;23.130;2022-08-19T03:39:44;157270.47;;;18.81;74.55
11888;BME280;6003;42.756;23.130;2022-08-19T03:42:11;157251.88;;;18.74;75.20
11888;BME280;6003;42.756;23.130;2022-08-19T03:44:38;157226.56;;;18.64;74.94
11888;BME280;6003;42.756;23.130;2022-08-19T03:50:10;157207.94;;;18.57;74.40
11888;BME280;6003;42.756;23.130;2022-08-19T03:52:38;157210.56;;;18.58;74.01
11888;BME280;6003;42.756;23.130;2022-08-19T03:55:07;157221.25;;;18.62;73.59
11888;BME280;6003;42.756;23.130;2022-08-19T03:57:34;157234.56;;;18.67;73.22
11888;BME280;6003;42.756;23.130;2022-08-19T04:00:03;157246.50;;;18.72;72.87
11888;BME280;6003;42.756;23.130;2022-08-19T04:02:31;157261.16;;;18.78;72.26
11888;BME280;6003;42.756;23.130;2022-08-19T04:04:58;157279.81;;;18.85;72.19
11888;BME280;6003;42.756;23.130;2022-08-19T04:07:25;157307.72;;;18.96;72.19
11888;BME280;6003;42.756;23.130;2022-08-19T04:09:52;157333.00;;;19.05;71.51
11888;BME280;6003;42.756;23.130;2022-08-19T04:12:20;157358.25;;;19.15;71.33
11888;BME280;6003;42.756;23.130;2022-08-19T04:14:47;157387.53;;;19.26;71.84
11888;BME280;6003;42.756;23.130;2022-08-19T04:17:14;157391.56;;;19.28;71.81
11888;BME280;6003;42.756;23.130;2022-08-19T04:19:40;157443.41;;;19.48;71.86
11888;BME280;6003;42.756;23.130;2022-08-19T04:22:08;157467.38;;;19.57;70.89
11888;BME280;6003;42.756;23.130;2022-08-19T04:24:36;157499.34;;;19.69;71.15
11888;BME280;6003;42.756;23.130;2022-08-19T04:27:04;157531.28;;;19.81;71.38
11888;BME280;6003;42.756;23.130;2022-08-19T04:29:33;157567.22;;;19.95;71.46
11888;BME280;6003;42.756;23.130;2022-08-19T04:32:00;157591.19;;;20.04;71.37
11888;BME280;6003;42.756;23.130;2022-08-19T04:34:28;157661.75;;;20.32;71.89
11888;BME280;6003;42.756;23.130;2022-08-19T04:37:06;157752.34;;;20.66;71.94
11888;BME280;6003;42.756;23.130;2022-08-19T04:39:37;157893.53;;;21.21;71.10
11888;BME280;6003;42.756;23.130;2022-08-19T04:42:21;158040.13;;;21.77;68.34
11888;BME280;6003;42.756;23.130;2022-08-19T04:45:11;158285.47;;;22.71;65.78
11888;BME280;6003;42.756;23.130;2022-08-19T04:47:41;158484.25;;;23.47;63.03
11888;BME280;6003;42.756;23.130;2022-08-19T04:50:08;158671.13;;;24.19;60.39
11888;BME280;6003;42.756;23.130;2022-08-19T04:52:37;158859.44;;;24.91;58.66
11888;BME280;6003;42.756;23.130;2022-08-19T04:55:08;159001.06;;;25.45;57.34
11888;BME280;6003;42.756;23.130;2022-08-19T04:57:35;159174.81;;;26.11;54.79
11888;BME280;6003;42.756;23.130;2022-08-19T05:00:09;159149.44;;;26.02;54.18
11888;BME280;6003;42.756;23.130;2022-08-19T05:02:37;159013.09;;;25.50;54.56
11888;BME280;6003;42.756;23.130;2022-08-19T05:05:05;159035.81;;;25.58;53.44
11888;BME280;6003;42.756;23.130;2022-08-19T05:07:32;159051.84;;;25.64;54.27
11888;BME280;6003;42.756;23.130;2022-08-19T05:09:59;159086.56;;;25.78;54.89
11888;BME280;6003;42.756;23.130;2022-08-19T05:12:26;159308.53;;;26.63;51.85
11888;BME280;6003;42.756;23.130;2022-08-19T05:14:57;159255.03;;;26.42;52.37
11888;BME280;6003;42.756;23.130;2022-08-19T05:17:26;159320.59;;;26.67;52.41
11888;BME280;6003;42.756;23.130;2022-08-19T05:19:54;159345.97;;;26.77;53.03
11888;BME280;6003;42.756;23.130;2022-08-19T05:22:38;159192.22;;;26.18;51.98
11888;BME280;6003;42.756;23.130;2022-08-19T05:25:09;159169.44;;;26.09;52.96
11888;BME280;6003;42.756;23.130;2022-08-19T05:27:52;159259.00;;;26.44;55.53
11888;BME280;6003;42.756;23.130;2022-08-19T05:30:19;159316.56;;;26.66;52.23
11888;BME280;6003;42.756;23.130;2022-08-19T05:32:48;159479.75;;;27.28;54.08
11888;BME280;6003;42.756;23.130;2022-08-19T05:35:15;159554.66;;;27.57;52.93
11888;BME280;6003;42.756;23.130;2022-08-19T05:37:44;159529.22;;;27.47;51.48
11888;BME280;6003;42.756;23.130;2022-08-19T05:40:11;159533.25;;;27.49;49.92
11888;BME280;6003;42.756;23.130;2022-08-19T05:42:38;159636.31;;;27.88;52.82
11888;BME280;6003;42.756;23.130;2022-08-19T05:45:07;159787.56;;;28.46;49.45
11888;BME280;6003;42.756;23.130;2022-08-19T05:47:34;159733.94;;;28.25;48.66
11888;BME280;6003;42.756;23.130;2022-08-19T05:50:04;159701.84;;;28.13;47.87
11888;BME280;6003;42.756;23.130;2022-08-19T05:52:31;159655.03;;;27.95;48.39
11888;BME280;6003;42.756;23.130;2022-08-19T05:54:58;159671.06;;;28.01;49.77
11888;BME280;6003;42.756;23.130;2022-08-19T05:57:25;159747.34;;;28.30;49.39
11888;BME280;6003;42.756;23.130;2022-08-19T05:59:54;159800.91;;;28.51;48.51
11888;BME280;6003;42.756;23.130;2022-08-19T06:02:22;160015.19;;;29.33;46.74
11888;BME280;6003;42.756;23.130;2022-08-19T06:04:49;160078.13;;;29.57;46.19
11888;BME280;6003;42.756;23.130;2022-08-19T06:07:17;160036.63;;;29.41;44.80
11888;BME280;6003;42.756;23.130;2022-08-19T06:09:44;160043.31;;;29.43;47.01
11888;BME280;6003;42.756;23.130;2022-08-19T06:12:11;160083.47;;;29.59;45.86
11888;BME280;6003;42.756;23.130;2022-08-19T06:14:38;160058.00;;;29.49;46.16
11888;BME280;6003;42.756;23.130;2022-08-19T06:17:06;160004.44;;;29.29;49.85
11888;BME280;6003;42.756;23.130;2022-08-19T06:19:34;160004.44;;;29.29;48.62
11888;BME280;6003;42.756;23.130;2022-08-19T06:22:02;159996.41;;;29.26;48.39
11888;BME280;6003;42.756;23.130;2022-08-19T06:24:31;159897.31;;;28.88;48.02
11888;BME280;6003;42.756;23.130;2022-08-19T06:27:00;159906.66;;;28.91;48.86
11888;BME280;6003;42.756;23.130;2022-08-19T06:29:28;159934.78;;;29.02;49.14
11888;BME280;6003;42.756;23.130;2022-08-19T06:31:58;160098.28;;;29.64;50.15
11888;BME280;6003;42.756;23.130;2022-08-19T06:34:27;159920.06;;;28.96;50.08
11888;BME280;6003;42.756;23.130;2022-08-19T06:36:55;159707.22;;;28.15;52.33
11888;BME280;6003;42.756;23.130;2022-08-19T06:39:25;159624.25;;;27.83;54.10
11888;BME280;6003;42.756;23.130;2022-08-19T06:41:56;159601.47;;;27.75;51.51
11888;BME280;6003;42.756;23.130;2022-08-19T06:44:25;159416.81;;;27.04;54.29
11888;BME280;6003;42.756;23.130;2022-08-19T06:46:54;159539.94;;;27.51;51.69
11888;BME280;6003;42.756;23.130;2022-08-19T06:49:22;159530.53;;;27.48;52.46
11888;BME280;6003;42.756;23.130;2022-08-19T06:51:50;159577.41;;;27.65;53.88
11888;BME280;6003;42.756;23.130;2022-08-19T06:54:19;159641.63;;;27.90;54.00
11888;BME280;6003;42.756;23.130;2022-08-19T06:56:46;159771.41;;;28.40;51.25
11888;BME280;6003;42.756;23.130;2022-08-19T06:59:16;159774.13;;;28.41;54.34
11888;BME280;6003;42.756;23.130;2022-08-19T07:01:45;159701.84;;;28.13;52.47
11888;BME280;6003;42.756;23.130;2022-08-19T07:04:13;159739.31;;;28.27;51.77
11888;BME280;6003;42.756;23.130;2022-08-19T07:06:42;159798.25;;;28.50;51.88
11888;BME280;6003;42.756;23.130;2022-08-19T07:09:12;159787.56;;;28.46;49.97
11888;BME280;6003;42.756;23.130;2022-08-19T07:11:43;159748.66;;;28.31;50.59
11888;BME280;6003;42.756;23.130;2022-08-19T07:14:11;159708.53;;;28.16;52.28
11888;BME280;6003;42.756;23.130;2022-08-19T07:16:40;159750.03;;;28.31;51.30
11888;BME280;6003;42.756;23.130;2022-08-19T07:19:08;159755.38;;;28.33;52.40
11888;BME280;6003;42.756;23.130;2022-08-19T07:21:35;159729.97;;;28.24;51.74
11888;BME280;6003;42.756;23.130;2022-08-19T07:24:03;159754.03;;;28.33;53.26
11888;BME280;6003;42.756;23.130;2022-08-19T07:26:32;159728.63;;;28.23;54.00
11888;BME280;6003;42.756;23.130;2022-08-19T07:29:00;159783.53;;;28.44;50.70
11888;BME280;6003;42.756;23.130;2022-08-19T07:31:27;159810.31;;;28.54;50.69
11888;BME280;6003;42.756;23.130;2022-08-19T07:33:57;159827.72;;;28.61;51.73
11888;BME280;6003;42.756;23.130;2022-08-19T07:36:26;159803.63;;;28.52;52.06
11888;BME280;6003;42.756;23.130;2022-08-19T07:38:59;159806.28;;;28.53;51.93
11888;BME280;6003;42.756;23.130;2022-08-19T07:41:28;159861.16;;;28.74;50.13
11888;BME280;6003;42.756;23.130;2022-08-19T07:43:56;159894.66;;;28.87;52.66
11888;BME280;6003;42.756;23.130;2022-08-19T07:46:24;159924.09;;;28.98;51.94
11888;BME280;6003;42.756;23.130;2022-08-19T07:48:53;159985.72;;;29.21;49.52
11888;BME280;6003;42.756;23.130;2022-08-19T07:51:21;160066.09;;;29.52;50.51
11888;BME280;6003;42.756;23.130;2022-08-19T07:53:49;160188.03;;;29.99;47.13
11888;BME280;6003;42.756;23.130;2022-08-19T07:56:17;160178.59;;;29.95;47.77
11888;BME280;6003;42.756;23.130;2022-08-19T07:58:48;160177.28;;;29.95;47.00
11888;BME280;6003;42.756;23.130;2022-08-19T08:01:18;160170.56;;;29.92;46.97
11888;BME280;6003;42.756;23.130;2022-08-19T08:03:50;160218.81;;;30.10;48.09
11888;BME280;6003;42.756;23.130;2022-08-19T08:06:36;160271.13;;;30.30;48.75
11888;BME280;6003;42.756;23.130;2022-08-19T08:09:23;160438.69;;;30.94;46.10
11888;BME280;6003;42.756;23.130;2022-08-19T08:11:53;160503.03;;;31.19;45.39
11888;BME280;6003;42.756;23.130;2022-08-19T08:14:23;160464.13;;;31.04;44.46
11888;BME280;6003;42.756;23.130;2022-08-19T08:16:51;160547.28;;;31.36;43.85
11888;BME280;6003;42.756;23.130;2022-08-19T08:19:19;160516.41;;;31.24;44.03
11888;BME280;6003;42.756;23.130;2022-08-19T08:21:49;160586.22;;;31.51;46.46
11888;BME280;6003;42.756;23.130;2022-08-19T08:24:17;160604.97;;;31.58;43.86
11888;BME280;6003;42.756;23.130;2022-08-19T08:26:45;160556.72;;;31.39;44.30
11888;BME280;6003;42.756;23.130;2022-08-19T08:29:13;160629.06;;;31.67;44.93
11888;BME280;6003;42.756;23.130;2022-08-19T08:31:42;160756.53;;;32.16;44.12
11888;BME280;6003;42.756;23.130;2022-08-19T08:34:10;160799.47;;;32.32;41.50
11888;BME280;6003;42.756;23.130;2022-08-19T08:36:39;160843.78;;;32.49;38.71
11888;BME280;6003;42.756;23.130;2022-08-19T08:39:09;160912.22;;;32.75;39.02
11888;BME280;6003;42.756;23.130;2022-08-19T08:41:41;160913.53;;;32.75;38.18
11888;BME280;6003;42.756;23.130;2022-08-19T08:44:16;160982.03;;;33.01;36.76
11888;BME280;6003;42.756;23.130;2022-08-19T08:46:47;160959.16;;;32.93;37.60
11888;BME280;6003;42.756;23.130;2022-08-19T08:49:25;160916.22;;;32.76;34.40
11888;BME280;6003;42.756;23.130;2022-08-19T08:52:00;161007.50;;;33.11;39.37
11888;BME280;6003;42.756;23.130;2022-08-19T08:54:36;161058.50;;;33.31;35.72
11888;BME280;6003;42.756;23.130;2022-08-19T08:57:19;161113.56;;;33.52;35.66
11888;BME280;6003;42.756;23.130;2022-08-19T08:59:48;161109.53;;;33.50;35.12
11888;BME280;6003;42.756;23.130;2022-08-19T09:02:17;161050.47;;;33.28;34.22
11888;BME280;6003;42.756;23.130;2022-08-19T09:04:45;161071.94;;;33.36;35.58
11888;BME280;6003;42.756;23.130;2022-08-19T09:07:21;161000.78;;;33.09;34.38
11888;BME280;6003;42.756;23.130;2022-08-19T09:09:56;161039.75;;;33.23;36.92
11888;BME280;6003;42.756;23.130;2022-08-19T09:12:34;161204.84;;;33.86;36.51
11888;BME280;6003;42.756;23.130;2022-08-19T09:15:08;161409.06;;;34.64;36.01
11888;BME280;6003;42.756;23.130;2022-08-19T09:17:36;161523.31;;;35.08;33.84
11888;BME280;6003;42.756;23.130;2022-08-19T09:20:06;161530.00;;;35.10;30.01
11888;BME280;6003;42.756;23.130;2022-08-19T09:22:40;161504.44;;;35.00;34.33
11888;BME280;6003;42.756;23.130;2022-08-19T09:25:13;161567.63;;;35.24;33.65
11888;BME280;6003;42.756;23.130;2022-08-19T09:27:41;161625.41;;;35.46;33.38
11888;BME280;6003;42.756;23.130;2022-08-19T09:30:13;161573.00;;;35.26;33.14
11888;BME280;6003;42.756;23.130;2022-08-19T09:32:40;161515.22;;;35.04;28.61
11888;BME280;6003;42.756;23.130;2022-08-19T09:35:08;161460.09;;;34.84;29.63
11888;BME280;6003;42.756;23.130;2022-08-19T09:37:35;161512.50;;;35.03;29.59
11888;BME280;6003;42.756;23.130;2022-08-19T09:40:03;161528.66;;;35.10;30.53
11888;BME280;6003;42.756;23.130;2022-08-19T09:42:33;161578.41;;;35.29;31.63
11888;BME280;6003;42.756;23.130;2022-08-19T09:45:00;161660.41;;;35.60;33.24
11888;BME280;6003;42.756;23.130;2022-08-19T09:47:27;161840.56;;;36.28;30.48
11888;BME280;6003;42.756;23.130;2022-08-19T09:49:53;161940.09;;;36.66;29.73
11888;BME280;6003;42.756;23.130;2022-08-19T09:52:20;161847.25;;;36.31;29.82
11888;BME280;6003;42.756;23.130;2022-08-19T09:54:47;161913.19;;;36.56;30.08
11888;BME280;6003;42.756;23.130;2022-08-19T09:57:17;162004.59;;;36.91;30.17
11888;BME280;6003;42.756;23.130;2022-08-19T09:59:46;161848.63;;;36.31;29.43
11888;BME280;6003;42.756;23.130;2022-08-19T10:02:13;161794.81;;;36.11;30.97
11888;BME280;6003;42.756;23.130;2022-08-19T10:04:40;161837.84;;;36.27;31.04
11888;BME280;6003;42.756;23.130;2022-08-19T10:07:36;161762.53;;;35.99;30.45
11888;BME280;6003;42.756;23.130;2022-08-19T10:10:05;161784.09;;;36.07;30.84
11888;BME280;6003;42.756;23.130;2022-08-19T10:12:32;161763.84;;;35.99;29.99
11888;BME280;6003;42.756;23.130;2022-08-19T10:15:01;161805.59;;;36.15;30.59
11888;BME280;6003;42.756;23.130;2022-08-19T10:17:28;161849.97;;;36.32;31.87
11888;BME280;6003;42.756;23.130;2022-08-19T10:19:55;161899.66;;;36.51;31.16
11888;BME280;6003;42.756;23.130;2022-08-19T10:22:22;161851.28;;;36.32;29.95
11888;BME280;6003;42.756;23.130;2022-08-19T10:24:49;161753.13;;;35.95;28.05
11888;BME280;6003;42.756;23.130;2022-08-19T10:27:47;161590.44;;;35.33;31.17
11888;BME280;6003;42.756;23.130;2022-08-19T10:30:15;161527.34;;;35.09;32.28
11888;BME280;6003;42.756;23.130;2022-08-19T10:32:42;161532.72;;;35.11;31.90
11888;BME280;6003;42.756;23.130;2022-08-19T10:35:11;161611.97;;;35.41;31.63
11888;BME280;6003;42.756;23.130;2022-08-19T10:37:39;161657.69;;;35.59;30.74
11888;BME280;6003;42.756;23.130;2022-08-19T10:40:08;161663.09;;;35.61;32.13
11888;BME280;6003;42.756;23.130;2022-08-19T10:42:37;161695.31;;;35.73;32.20
11888;BME280;6003;42.756;23.130;2022-08-19T10:45:05;161706.09;;;35.77;30.17
11888;BME280;6003;42.756;23.130;2022-08-19T10:47:33;161741.00;;;35.90;31.27
11888;BME280;6003;42.756;23.130;2022-08-19T10:50:00;161700.72;;;35.75;29.54
11888;BME280;6003;42.756;23.130;2022-08-19T10:52:47;161765.25;;;36.00;30.33
11888;BME280;6003;42.756;23.130;2022-08-19T10:55:14;161770.56;;;36.02;32.01
11888;BME280;6003;42.756;23.130;2022-08-19T11:00:57;161761.19;;;35.98;28.28
11888;BME280;6003;42.756;23.130;2022-08-19T11:03:27;161695.31;;;35.73;27.57
11888;BME280;6003;42.756;23.130;2022-08-19T11:05:59;161581.06;;;35.30;30.08
11888;BME280;6003;42.756;23.130;2022-08-19T11:08:26;161536.72;;;35.13;31.40
11888;BME280;6003;42.756;23.130;2022-08-19T11:10:54;161579.72;;;35.29;30.24
11888;BME280;6003;42.756;23.130;2022-08-19T11:13:22;161605.22;;;35.39;31.50
11888;BME280;6003;42.756;23.130;2022-08-19T11:15:56;161534.06;;;35.12;30.88
11888;BME280;6003;42.756;23.130;2022-08-19T11:18:23;161366.06;;;34.48;30.36
11888;BME280;6003;42.756;23.130;2022-08-19T11:20:52;161262.66;;;34.08;32.15
11888;BME280;6003;42.756;23.130;2022-08-19T11:23:19;161221.00;;;33.92;32.46
11888;BME280;6003;42.756;23.130;2022-08-19T11:25:46;161084.00;;;33.40;30.91
11888;BME280;6003;42.756;23.130;2022-08-19T11:31:30;161077.31;;;33.38;31.95
11888;BME280;6003;42.756;23.130;2022-08-19T11:34:00;161120.28;;;33.54;33.04
11888;BME280;6003;42.756;23.130;2022-08-19T11:36:29;161148.50;;;33.65;33.17
11888;BME280;6003;42.756;23.130;2022-08-19T11:38:56;161144.44;;;33.63;33.56
11888;BME280;6003;42.756;23.130;2022-08-19T11:41:24;161183.41;;;33.78;32.44
11888;BME280;6003;42.756;23.130;2022-08-19T11:43:52;161208.91;;;33.88;32.82
11888;BME280;6003;42.756;23.130;2022-08-19T11:46:21;161242.44;;;34.01;31.99
11888;BME280;6003;42.756;23.130;2022-08-19T11:48:49;161206.25;;;33.87;30.63
11888;BME280;6003;42.756;23.130;2022-08-19T11:51:18;161131.06;;;33.58;31.99
11888;BME280;6003;42.756;23.130;2022-08-19T11:53:47;161155.22;;;33.67;34.00
11888;BME280;6003;42.756;23.130;2022-08-19T11:56:14;161139.09;;;33.61;32.51
11888;BME280;6003;42.756;23.130;2022-08-19T11:58:41;161191.47;;;33.81;34.83
11888;BME280;6003;42.756;23.130;2022-08-19T12:01:09;161230.41;;;33.96;31.86
11888;BME280;6003;42.756;23.130;2022-08-19T12:03:37;161194.13;;;33.82;32.23
11888;BME280;6003;42.756;23.130;2022-08-19T12:06:05;161187.41;;;33.80;32.51
11888;BME280;6003;42.756;23.130;2022-08-19T12:08:32;161167.25;;;33.72;31.16
11888;BME280;6003;42.756;23.130;2022-08-19T12:11:00;161208.91;;;33.88;32.39
11888;BME280;6003;42.756;23.130;2022-08-19T12:13:28;161210.25;;;33.88;30.91
11888;BME280;6003;42.756;23.130;2022-08-19T12:15:56;161180.69;;;33.77;31.30
11888;BME280;6003;42.756;23.130;2022-08-19T12:18:23;161133.72;;;33.59;30.86
11888;BME280;6003;42.756;23.130;2022-08-19T12:20:52;161184.75;;;33.79;32.87
11888;BME280;6003;42.756;23.130;2022-08-19T12:23:20;161187.41;;;33.80;31.31
11888;BME280;6003;42.756;23.130;2022-08-19T12:25:48;161153.88;;;33.67;30.70
11888;BME280;6003;42.756;23.130;2022-08-19T12:28:19;161187.41;;;33.80;30.62
11888;BME280;6003;42.756;23.130;2022-08-19T12:30:46;161196.81;;;33.83;31.63
11888;BME280;6003;42.756;23.130;2022-08-19T12:33:13;161239.78;;;34.00;33.12
11888;BME280;6003;42.756;23.130;2022-08-19T12:35:41;161289.53;;;34.19;33.41
11888;BME280;6003;42.756;23.130;2022-08-19T12:38:09;161332.47;;;34.35;33.63
11888;BME280;6003;42.756;23.130;2022-08-19T12:40:36;161337.84;;;34.37;32.36
11888;BME280;6003;42.756;23.130;2022-08-19T12:43:04;161343.25;;;34.39;32.84
11888;BME280;6003;42.756;23.130;2022-08-19T12:45:33;161355.28;;;34.44;33.18
11888;BME280;6003;42.756;23.130;2022-08-19T12:48:01;161355.28;;;34.44;32.33
11888;BME280;6003;42.756;23.130;2022-08-19T12:50:28;161321.75;;;34.31;31.58
11888;BME280;6003;42.756;23.130;2022-08-19T12:52:56;161274.75;;;34.13;32.81
11888;BME280;6003;42.756;23.130;2022-08-19T12:55:23;161261.31;;;34.08;32.21
11888;BME280;6003;42.756;23.130;2022-08-19T12:57:50;161260.00;;;34.07;31.92
11888;BME280;6003;42.756;23.130;2022-08-19T13:00:19;161242.44;;;34.01;33.10
11888;BME280;6003;42.756;23.130;2022-08-19T13:02:50;161251.94;;;34.04;33.51
11888;BME280;6003;42.756;23.130;2022-08-19T13:05:21;161214.28;;;33.90;33.20
11888;BME280;6003;42.756;23.130;2022-08-19T13:07:50;161310.97;;;34.27;32.19
11888;BME280;6003;42.756;23.130;2022-08-19T13:10:19;161301.59;;;34.23;31.77